Historyczne dane pomiarowe

Dodano dane terminowe – wersja testowa.

Dane z okresu 1951-2019

Wersja bazy: 1.34 [2019-03-16, lista zmian], aktualizacja planowana na 2019-04-15

Dane meteo z obszaru Polski uzyskane na podstawie danych udostępnionych przez Instytut Meteorologii i Gospodarki Wodnej – Państwowy Instytut Badawczy.

 

Wybierz Datę:    

       

TemperaturaWilgotnośćWiatrCiśnienieOpadyŚniegCzas trwania zjawisk
 Stacja t tx tn tng RH VA  wxwx mslp ppp RRR   cm mm wxwxwxwxwxwxwx
1999-08-14 14.2 19.5 8.6--- 1.0 3.0---- 0.0------------
1999-08-13 15.4 20.7 9.5--- 0.7 0.7---- 0.0------------
1999-08-12 17.1 21.4 14.5--- 2.7 2.0---- 0.0------------
1999-08-11 19.5 24.4 17.4--- 3.3 2.0---- 0.5------------
1999-08-10 20.9 28.4 15.0--- 3.0 0.3---- 16.2------------
1999-08-09 23.7 30.5 17.1--- 2.7 1.3---- 5.5------------
1999-08-08 21.5 26.4 16.4--- 2.0 0.3---- 3.1------------
1999-08-07 19.7 27.4 13.0--- 2.3 0.0---- 0.0------------
1999-08-06 19.4 22.8 15.0--- 2.0 1.0---- 0.0------------
1999-08-05 18.9 25.4 12.7--- 0.7 1.0---- 0.0------------
1999-08-04 17.8 23.0 13.0--- 2.7 1.3---- 0.0------------
1999-08-03 18.3 22.2 14.5--- 1.7 0.7---- 0.0------------
1999-08-02 17.4 21.0 15.0--- 7.0 0.7---- 6.3------------
1999-08-01 18.7 24.0 14.0--- 2.3 1.7---- 0.2------------
1999-07-31 18.7 24.4 12.5--- 0.0 1.3---- 0.0------------
1999-07-30 17.5 23.0 12.6--- 1.0 1.3---- 0.0------------
1999-07-29 17.1 22.4 12.0--- 0.0 1.3---- 0.0------------
1999-07-28 17.4 20.5 14.5--- 4.0 1.0---- 10.7------------
1999-07-27 19.3 23.0 16.0--- 2.7 2.0---- 0.0------------
1999-07-26 22.1 27.9 16.9--- 3.0 0.7---- 14.0------------
1999-07-25 19.5 25.4 12.5--- 0.3 0.0---- 0.0------------
1999-07-24 17.8 23.5 13.0--- 0.3 0.3---- 0.0------------
1999-07-23 15.9 21.9 13.0--- 7.0 3.0---- 6.0------------
1999-07-22 21.0 25.4 16.0--- 1.0 1.7---- 0.2------------
1999-07-21 22.0 28.4 15.8--- 0.7 1.0---- 0.0------------
1999-07-20 21.5 27.6 14.0--- 0.3 0.7---- 0.0------------
1999-07-19 19.3 26.4 13.0--- 2.7 2.0---- 0.6------------
1999-07-18 18.0 23.3 11.2--- 2.7 1.3---- 0.0------------
1999-07-17 16.7 22.7 9.9--- 0.3 0.7---- 0.0------------
1999-07-16 16.2 21.6 10.6--- 0.7 2.0---- 0.0------------
1999-07-15 16.6 21.2 14.0--- 5.0 3.0---- 6.4------------
1999-07-14 20.9 26.4 16.9--- 5.7 1.0---- 10.0------------
1999-07-13 20.3 26.2 14.5--- 2.7 2.0---- 5.3------------
1999-07-12 20.4 27.0 13.4--- 1.7 4.0---- 0.0------------
1999-07-11 19.1 25.4 12.6--- 0.0 2.7---- 0.0------------
1999-07-10 20.8 24.0 19.4--- 0.0 3.3---- 0.0------------
1999-07-09 20.3 24.7 16.9--- 5.3 2.7---- 0.0------------
1999-07-08 20.9 24.9 16.9--- 2.3 1.7---- 20.8------------
1999-07-07 23.9 30.9 20.3--- 1.3 1.0---- 0.1------------
1999-07-06 25.8 31.1 16.9--- 1.0 1.3---- 0.0------------
1999-07-05 24.3 30.9 17.4--- 0.3 0.3---- 0.0------------
1999-07-04 22.0 28.4 15.0--- 0.7 0.3---- 0.0------------
1999-07-03 20.5 24.9 13.3--- 0.7 0.3---- 0.0------------
1999-07-02 19.9 24.0 16.0--- 0.7 0.3---- 0.3------------
1999-07-01 19.7 24.9 13.0--- 0.7 1.0---- 0.0------------
1999-06-30 19.1 24.0 13.5--- 0.0 0.7---- 0.0------------
1999-06-29 18.9 23.2 14.4--- 2.0 2.0---- 0.0------------
1999-06-28 20.4 27.0 13.1--- 0.7 0.7---- 0.0------------
1999-06-27 18.3 24.0 10.3--- 1.3 0.3---- 0.0------------
1999-06-26 14.8 21.4 6.6--- 1.0 1.0---- 0.0------------
1999-06-25 12.7 18.0 10.6--- 4.3 2.3---- 0.0------------
1999-06-24 11.0 12.2 10.1--- 8.0 3.3---- 11.5------------
1999-06-23 12.1 16.8 10.2--- 8.0 3.7---- 8.5------------
1999-06-22 18.3 24.0 15.5--- 8.0 2.0---- 26.7------------
1999-06-21 19.0 24.0 14.8--- 3.0 0.7---- 5.5------------
1999-06-20 18.5 23.7 15.0--- 6.0 1.0---- 0.0------------
1999-06-19 19.0 24.4 14.0--- 5.3 1.7---- 2.0------------
1999-06-18 19.7 25.4 15.5--- 2.3 0.0---- 0.4------------
1999-06-17 20.4 24.9 16.5--- 5.7 0.3---- 12.2------------
1999-06-16 19.5 24.0 16.4--- 7.7 2.3---- 8.0------------
262.1 ms

 

Źródłem pochodzenia danych jest Instytut Meteorologii i Gospodarki Wodnej – Państwowy Instytut Badawczy. Dane Instytutu Meteorologii i Gospodarki Wodnej – Państwowego Instytutu Badawczego zostały przetworzone.

Dane źródłowe można odnaleźć na stronie https://dane.imgw.pl